Home > Products > Valid Products > TAF

000
FTUS41 KPBZ 160800 AAA
TAFDUJ
TAF AMD
KDUJ 160858Z 1609/1706 34006KT P6SM SCT020
     FM161400 36008KT P6SM SKC=



000
FTUS41 KPBZ 160800 AAA
TAFAGC
TAF AMD
KAGC 160857Z 1609/1706 36004KT P6SM SCT025
      TEMPO 1609/1610 -SHSN BKN025
     FM161200 VRB05KT P6SM SKC=



000
FTUS41 KPBZ 160800 AAA
TAFPIT
TAF AMD
KPIT 160856Z 1609/1712 03004KT P6SM SCT025
     FM161200 VRB04KT P6SM SKC=



000
FTUS41 KPBZ 160500
TAFMGW
TAF
KMGW 160520Z 1606/1706 30008KT P6SM SCT035
     FM161200 VRB05KT P6SM SCT250=



000
FTUS41 KPBZ 160500
TAFHLG
TAF
KHLG 160520Z 1606/1706 28006KT P6SM SCT028
      TEMPO 1606/1608 -SHSN BKN028
     FM161200 VRB05KT P6SM SCT250=



000
FTUS41 KPBZ 160500
TAFBVI
TAF
KBVI 160520Z 1606/1706 30008KT P6SM SCT025
      TEMPO 1606/1608 -SHSN BKN025
     FM161200 VRB05KT P6SM SCT250
      AMD NOT SKED=



000
FTUS41 KPBZ 160500
TAFAGC
TAF
KAGC 160520Z 1606/1706 30008KT P6SM SCT025
      TEMPO 1606/1608 -SHSN BKN025
     FM161200 VRB05KT P6SM SCT250=



000
FTUS41 KPBZ 160500
TAFZZV
TAF
KZZV 160520Z 1606/1706 28005KT P6SM SCT035
     FM161200 VRB03KT P6SM SCT250=



000
FTUS41 KPBZ 160500
TAFPIT
TAF
KPIT 160520Z 1606/1712 30008KT P6SM SCT025
      TEMPO 1606/1608 -SHSN BKN025
     FM161200 VRB05KT P6SM SCT250=



000
FTUS41 KPBZ 160500
TAFLBE
TAF
KLBE 160520Z 1606/1706 30008KT P6SM SCT028
      TEMPO 1606/1608 -SHSN BKN028
     FM161200 36006KT P6SM SCT250
      AMD NOT SKED=



000
FTUS41 KPBZ 160500
TAFDUJ
TAF
KDUJ 160520Z 1606/1706 34012G20KT P6SM SCT025
      TEMPO 1606/1608 -SHSN BKN025
     FM161000 36006KT P6SM SCT250=



000
FTUS41 KPBZ 160300 AAB
TAFDUJ
TAF AMD
KDUJ 160341Z 1604/1624 31007KT P6SM SCT025 BKN050
      TEMPO 1603/1605 -SHSN BKN025
     FM160700 VRB05KT P6SM SCT250=



000
FTUS41 KPBZ 160200 AAA
TAFPIT
TAF AMD
KPIT 160238Z 1603/1706 32008KT P6SM BKN050
     FM160700 VRB05KT P6SM SCT250=



000
FTUS41 KPBZ 160200 AAA
TAFDUJ
TAF AMD
KDUJ 160219Z 1602/1624 31010G20KT P6SM BKN050
     FM160800 VRB05KT P6SM SCT250=



000
FTUS41 KPBZ 152300
TAFZZV
TAF
KZZV 152320Z 1600/1624 31010KT P6SM BKN050
     FM160400 VRB05KT P6SM SCT250=



000
FTUS41 KPBZ 152300
TAFLBE
TAF
KLBE 152320Z 1600/1624 31012G22KT 6SM -SHSN OVC035
     FM160300 33008KT P6SM BKN050
     FM160900 VRB05KT P6SM SCT250
      AMD NOT SKED 1602/1610=



000
FTUS41 KPBZ 152300
TAFBVI
TAF
KBVI 152320Z 1600/1624 32010G20KT P6SM -SHSN BKN035
     FM160200 32005KT P6SM BKN050
     FM160700 VRB05KT P6SM SCT250
      AMD NOT SKED 1601/1611=



000
FTUS41 KPBZ 152300
TAFPIT
TAF
KPIT 152320Z 1600/1706 32010G20KT P6SM -SHSN BKN035
     FM160200 32005KT P6SM BKN050
     FM160700 VRB05KT P6SM SCT250=



000
FTUS41 KPBZ 152300
TAFHLG
TAF
KHLG 152320Z 1600/1624 30012KT P6SM BKN050
     FM160700 VRB05KT P6SM SCT250=



000
FTUS41 KPBZ 152300
TAFAGC
TAF
KAGC 152320Z 1600/1624 32010G20KT P6SM -SHSN BKN035
     FM160200 32005KT P6SM BKN050
     FM160700 VRB05KT P6SM SCT250=



000
FTUS41 KPBZ 152300
TAFDUJ
TAF
KDUJ 152320Z 1600/1624 30012G22KT 6SM -SHSN OVC020
     FM160300 32012KT P6SM BKN035
     FM160800 VRB05KT P6SM SCT250=



000
FTUS41 KPBZ 152300
TAFMGW
TAF
KMGW 152320Z 1600/1624 31008KT P6SM -SHSN OVC035
     FM160200 32005KT P6SM BKN050
     FM160800 VRB05KT P6SM SCT250=



000
FTUS41 KPBZ 152200 AAB
TAFLBE
TAF AMD
KLBE 152205Z 1522/1618 31012G22KT P6SM -SHSN SCT015 OVC025
      TEMPO 1522/1524 5SM -SHSN BKN015
     FM160300 33007KT P6SM BKN035
     FM160900 VRB03KT P6SM SKC=



000
FTUS41 KPBZ 152200 AAB
TAFBVI
TAF AMD
KBVI 152204Z 1522/1618 30010G20KT 6SM -SHSN BKN025
     FM160200 33005KT P6SM BKN035
     FM160800 VRB03KT P6SM SKC=



000
FTUS41 KPBZ 152200 AAC
TAFAGC
TAF AMD
KAGC 152203Z 1522/1618 32010G20KT 6SM -SHSN OVC020
      TEMPO 1522/1523 2SM -SHSN
     FM160200 33005KT P6SM BKN035
     FM160800 VRB03KT P6SM SKC=



000
FTUS41 KPBZ 152200 AAC
TAFPIT
TAF AMD
KPIT 152203Z 1522/1624 32012G22KT 6SM -SHSN OVC020
     FM160200 33005KT P6SM BKN035
     FM160800 VRB03KT P6SM SKC=



000
FTUS41 KPBZ 152100 AAA
TAFZZV
TAF AMD
KZZV 152104Z 1521/1618 31010KT P6SM BKN035
     FM160400 00000KT P6SM SKC=



000
FTUS41 KPBZ 152100 AAB
TAFMGW
TAF AMD
KMGW 152103Z 1521/1618 31008KT 6SM -SHSN SCT015 OVC025
      TEMPO 1521/1524 3SM -SHSN BKN015
     FM160200 32003KT P6SM BKN035
     FM160600 VRB03KT P6SM SKC=



000
FTUS41 KPBZ 152000 AAB
TAFPIT
TAF AMD
KPIT 152056Z 1521/1624 32012G22KT P6SM -SHSN SCT015 OVC025
      TEMPO 1521/1524 3SM -SHSN BKN015
     FM160200 33005KT P6SM BKN035
     FM160800 VRB03KT P6SM SKC=



000
FTUS41 KPBZ 152000 AAB
TAFAGC
TAF AMD
KAGC 152054Z 1521/1618 32010G20KT 6SM -SHSN OVC015
      TEMPO 1521/1523 2SM -SHSN
     FM160200 33005KT P6SM BKN035
     FM160800 VRB03KT P6SM SKC=



000
FTUS41 KPBZ 152000 AAA
TAFDUJ
TAF AMD
KDUJ 152042Z 1521/1618 30012G20KT 6SM -SHSN OVC015
     FM160300 32006KT P6SM BKN020
     FM160800 31004KT P6SM SKC=



000
FTUS41 KPBZ 152000 AAA
TAFHLG
TAF AMD
KHLG 152008Z 1520/1618 31010G20KT P6SM -SHSN SCT015 OVC025
      TEMPO 1520/1522 BKN015
     FM160200 32005KT P6SM BKN035
     FM160800 VRB03KT P6SM SKC=



000
FTUS41 KPBZ 152000 AAA
TAFLBE
TAF AMD
KLBE 152007Z 1520/1618 31012G22KT P6SM -SHSN OVC020
     FM160300 33007KT P6SM BKN035
     FM160900 VRB03KT P6SM SKC=



000
FTUS41 KPBZ 151900 AAA
TAFMGW
TAF AMD
KMGW 151949Z 1520/1618 31008KT 3SM -SN SCT015 OVC025
      TEMPO 1520/1522 1 1/2SM -SN BKN015
     FM152200 31010KT P6SM VCSH BKN025
     FM160200 32003KT P6SM BKN035
     FM160600 VRB03KT P6SM SKC=



000
FTUS41 KPBZ 151900 AAA
TAFBVI
TAF AMD
KBVI 151946Z 1520/1618 32010G20KT P6SM -SHSN BKN015
     FM160200 33005KT P6SM BKN035
     FM160800 VRB03KT P6SM SKC=



000
FTUS41 KPBZ 151900 AAA
TAFAGC
TAF AMD
KAGC 151935Z 1520/1618 32010G20KT P6SM -SHSN SCT015 BKN025
      TEMPO 1520/1522 BKN015
     FM160200 33005KT P6SM BKN035
     FM160800 VRB03KT P6SM SKC=



000
FTUS41 KPBZ 151900 AAA
TAFPIT
TAF AMD
KPIT 151934Z 1520/1624 32012G22KT P6SM -SHSN SCT015 BKN025
      TEMPO 1520/1522 BKN015
     FM160200 33005KT P6SM BKN035
     FM160800 VRB03KT P6SM SKC=



000
FTUS41 KPBZ 151700
TAFZZV
TAF
KZZV 151739Z 1518/1618 31012KT P6SM BKN018
     FM152000 31012KT P6SM BKN025
     FM160000 32008KT P6SM BKN035
     FM160400 00000KT P6SM SKC=



000
FTUS41 KPBZ 151700
TAFMGW
TAF
KMGW 151739Z 1518/1618 31008KT 4SM -RASN OVC010
      TEMPO 1518/1520 OVC008
     FM152100 31010KT P6SM VCSH BKN025
     FM160200 32003KT P6SM BKN035
     FM160600 VRB03KT P6SM SKC=



000
FTUS41 KPBZ 151700
TAFPIT
TAF
KPIT 151739Z 1518/1624 31010G18KT 3SM -SHSN OVC015
      TEMPO 1518/1519 1SM -SHSN
     FM152000 32010G20KT P6SM VCSH BKN025
     FM160200 33005KT P6SM BKN035
     FM160800 VRB03KT P6SM SKC=



000
FTUS41 KPBZ 151700
TAFDUJ
TAF
KDUJ 151739Z 1518/1618 30010G18KT 4SM -SHSN OVC015
     FM152000 30012G20KT P6SM VCSH OVC015
     FM160300 32006KT P6SM VCSH BKN020
     FM160800 31004KT P6SM SCT020
     FM161200 31004KT P6SM SKC=



000
FTUS41 KPBZ 151700
TAFHLG
TAF
KHLG 151739Z 1518/1618 30010G18KT 3SM -SHSN OVC010
      TEMPO 1518/1519 1SM -SHSN
     FM152000 31010G20KT P6SM VCSH BKN025
     FM160200 32005KT P6SM BKN035
     FM160800 VRB03KT P6SM SKC=



000
FTUS41 KPBZ 151700
TAFLBE
TAF
KLBE 151739Z 1518/1618 31010G18KT 3SM -SHSN OVC010
     FM152100 32010G20KT P6SM VCSH BKN025
     FM160300 33007KT P6SM BKN035
     FM160900 VRB03KT P6SM SKC=



000
FTUS41 KPBZ 151700
TAFAGC
TAF
KAGC 151739Z 1518/1618 32010G18KT 3SM -SHSN OVC010
      TEMPO 1518/1519 1SM -SHSN OVC008
     FM152000 32010G20KT P6SM VCSH BKN025
     FM160200 33005KT P6SM BKN035
     FM160800 VRB03KT P6SM SKC=



000
FTUS41 KPBZ 151700
TAFBVI
TAF
KBVI 151739Z 1518/1618 31010G18KT 3SM -SHSN OVC015
      TEMPO 1518/1519 1SM -SHSN
     FM152000 32010G20KT P6SM VCSH BKN025
     FM160200 33005KT P6SM BKN035
     FM160800 VRB03KT P6SM SKC=



000
FTUS41 KPBZ 151700 AAB
TAFHLG
TAF AMD
KHLG 151709Z 1517/1612 30010G18KT 3SM -SHSN OVC010
      TEMPO 1517/1518 1 1/2SM -SHSN
     FM152000 32010G20KT P6SM VCSH BKN025
     FM160600 33005KT P6SM BKN035=



000
FTUS41 KPBZ 151600 AAA
TAFMGW
TAF AMD
KMGW 151616Z 1516/1612 31006KT 4SM -SHRA OVC008
     FM151800 31010KT 4SM -SHSN OVC015
     FM152200 32010G20KT P6SM VCSH BKN025=



000
FTUS41 KPBZ 151400 AAA
TAFDUJ
TAF AMD
KDUJ 151459Z 1515/1612 30010G18KT 3SM -SHSN OVC008
     FM151900 30012G20KT P6SM VCSH OVC015
     FM160200 32008KT P6SM VCSH BKN020=



000
FTUS41 KPBZ 151400 AAA
TAFLBE
TAF AMD
KLBE 151459Z 1515/1612 31010G16KT 2SM -SN OVC010
     FM151800 31014G25KT P6SM -SHSN OVC015
     FM152000 32010G20KT P6SM VCSH BKN025
     FM160600 33005KT P6SM BKN035=



000
FTUS41 KPBZ 151400 AAB
TAFPIT
TAF AMD
KPIT 151459Z 1515/1618 31010G18KT 3SM -SN OVC008
     FM151700 31014G25KT P6SM -SHSN OVC015
     FM152000 32010G20KT P6SM VCSH BKN025
     FM160600 33005KT P6SM BKN035=



000
FTUS41 KPBZ 151400 CCA
TAFHLG
TAF COR
KHLG 151411Z 1514/1612 31010G20KT 3SM -SN OVC008
      TEMPO 1514/1515 1 1/2SM -SN
     FM151700 31019G26KT P6SM -SHSN OVC015
     FM152000 32010G20KT P6SM VCSH BKN025
     FM160600 33005KT P6SM BKN035=



000
FTUS41 KPBZ 151400 AAA
TAFHLG
TAF AMD
KHLG 151408Z 1514/1612 31010G20KT 3SM -SN OVC008
      TEMPO 1514/1516 1 1/2SM -SN
     FM151700 31019G26KT P6SM -SHSN OVC015
     FM152000 32010G20KT P6SM VCSH BKN025
     FM160600 33005KT P6SM BKN035=



000
FTUS41 KPBZ 151400 AAA
TAFBVI
TAF AMD
KBVI 151408Z 1514/1612 31010G20KT 4SM -SN OVC008
     FM151700 31015G24KT P6SM -SHSN OVC015
     FM152000 32010G20KT P6SM VCSH BKN025
     FM160600 33005KT P6SM BKN035=



000
FTUS41 KPBZ 151400 AAA
TAFAGC
TAF AMD
KAGC 151408Z 1514/1612 31010G20KT 4SM -SN OVC008
     FM151700 31015G24KT P6SM -SHSN OVC015
     FM152000 32010G20KT P6SM VCSH BKN025
     FM160600 33005KT P6SM BKN035=



000
FTUS41 KPBZ 151400 AAA
TAFZZV
TAF AMD
KZZV 151408Z 1514/1612 31010G20KT 2SM -SHSN OVC010
      TEMPO 1514/1515 1/2SM SHSN OVC005
     FM151600 31014G21KT P6SM -SHSN OVC012
     FM151800 32010G20KT P6SM BKN025
     FM152200 32008KT P6SM BKN035=



000
FTUS41 KPBZ 151300 AAA
TAFPIT
TAF AMD
KPIT 151344Z 1514/1618 31012G22KT 3SM -SN OVC008
     FM151700 31019G26KT P6SM -SHSN OVC015
     FM152000 32010G20KT P6SM VCSH BKN025
     FM160600 33005KT P6SM BKN035=



000
FTUS41 KPBZ 151100
TAFBVI
TAF
KBVI 151139Z 1512/1612 31015G24KT 6SM -SHRA OVC007
      TEMPO 1512/1514 2SM -FZRA
     FM151400 31019G26KT 6SM -SN OVC007
     FM151700 31019G26KT P6SM -SHSN OVC015
     FM152000 32010G20KT P6SM VCSH BKN025
     FM160600 33005KT P6SM BKN035=



000
FTUS41 KPBZ 151100
TAFAGC
TAF
KAGC 151139Z 1512/1612 32017G24KT 6SM -SHRA OVC006
     FM151500 31019G26KT 6SM -SN OVC007
     FM151700 31019G26KT P6SM -SHSN OVC015
     FM152000 32010G20KT P6SM VCSH BKN025
     FM160600 33005KT P6SM BKN035=



000
FTUS41 KPBZ 151100
TAFHLG
TAF
KHLG 151139Z 1512/1612 31012G22KT 6SM -SHRA OVC007
     FM151400 31019G26KT 6SM -SN OVC007
     FM151700 31019G26KT P6SM -SHSN OVC015
     FM152000 32010G20KT P6SM VCSH BKN025
     FM160600 33005KT P6SM BKN035=



000
FTUS41 KPBZ 151100
TAFLBE
TAF
KLBE 151139Z 1512/1612 31017G24KT 6SM -SHRA OVC007
     FM151500 31019G26KT 6SM -SN OVC007
     FM151700 31019G26KT P6SM -SHSN OVC015
     FM152000 32010G20KT P6SM VCSH BKN025
     FM160600 33005KT P6SM BKN035=



000
FTUS41 KPBZ 151100
TAFPIT
TAF
KPIT 151139Z 1512/1618 32017G24KT 6SM -SHRA OVC006
     FM151500 31019G26KT 6SM -SN OVC007
     FM151700 31019G26KT P6SM -SHSN OVC015
     FM152000 32010G20KT P6SM VCSH BKN025
     FM160600 33005KT P6SM BKN035=



000
FTUS41 KPBZ 151100
TAFZZV
TAF
KZZV 151139Z 1512/1612 32012G22KT 4SM -SHSN OVC008
      TEMPO 1512/1514 1SM -SHSN OVC005
     FM151500 31014G21KT P6SM -SHSN OVC012
     FM151700 32010G20KT P6SM BKN025
     FM152200 32008KT P6SM BKN035=



000
FTUS41 KPBZ 151100
TAFMGW
TAF
KMGW 151139Z 1512/1612 30012G22KT P6SM -SHRA SCT012 BKN025
      TEMPO 1512/1514 4SM -SHRA BR BKN008
     FM151400 31012G22KT 6SM -SHRA OVC012
     FM151600 31012G22KT 4SM -SHSN OVC015
     FM152200 32010G20KT P6SM VCSH BKN025=



000
FTUS41 KPBZ 151100
TAFDUJ
TAF
KDUJ 151139Z 1512/1612 30012G22KT P6SM -SHRASN OVC006
      TEMPO 1512/1514 2SM -SHSN BR OVC004
     FM151400 31012G22KT 3SM -SHSN OVC008
     FM151900 30012G20KT P6SM VCSH OVC015
     FM160200 32008KT P6SM VCSH BKN020=



000
FTUS41 KPBZ 151000 AAC
TAFPIT
TAF AMD
KPIT 151002Z 1510/1612 30012G22KT 4SM -SHRA OVC006
     FM151400 31012G22KT 4SM -SHSN OVC008
     FM152000 32010G20KT P6SM VCSH BKN025=



000
FTUS41 KPBZ 150900 AAA
TAFMGW
TAF AMD
KMGW 150903Z 1509/1606 16008G16KT P6SM OVC040
     FM150930 30012G22KT 4SM -SHRA SCT012 BKN025
      TEMPO 1510/1512 4SM -SHRA BR BKN012
     FM151200 31012G22KT 6SM -SHRA OVC012
     FM151600 31012G22KT 4SM -SHSN OVC015
     FM152200 32010G20KT P6SM VCSH BKN025=



000
FTUS41 KPBZ 150900 AAA
TAFDUJ
TAF AMD
KDUJ 150902Z 1509/1606 16008G16KT P6SM OVC040
     FM150930 30012G22KT 4SM -SHRA SCT005 BKN025
      TEMPO 1510/1512 4SM -SHRA BR BKN005
     FM151200 31012G22KT 6SM -SHRA OVC006
     FM151500 31012G22KT 4SM -SHSN OVC008
     FM152000 32010G20KT P6SM VCSH BKN025=



000
FTUS41 KPBZ 150900 AAA
TAFAGC
TAF AMD
KAGC 150900Z 1509/1606 30012G22KT P6SM -SHRA SCT005 BKN025
      TEMPO 1509/1511 4SM -SHRA BR BKN005
     FM151100 31012G22KT 6SM -SHRA OVC012
     FM151300 31012G22KT 4SM -SHSN OVC008
     FM152000 32010G20KT P6SM VCSH BKN025=



000
FTUS41 KPBZ 150800 AAB
TAFPIT
TAF AMD
KPIT 150859Z 1509/1612 30012G22KT P6SM -SHRA SCT005 BKN025
      TEMPO 1509/1511 4SM -SHRA BR BKN005
     FM151100 31012G22KT 6SM -SHRA OVC012
     FM151300 31012G22KT 4SM -SHSN OVC008
     FM152000 32010G20KT P6SM VCSH BKN025=



000
FTUS41 KPBZ 150800 AAA
TAFZZV
TAF AMD
KZZV 150807Z 1508/1606 30010KT P6SM -SHRA BKN012
     FM151100 31012G22KT 2SM -SHSN OVC008
     FM151400 31014G21KT P6SM -SHSN OVC015
     FM151700 32010G20KT P6SM BKN025
     FM152200 32008KT P6SM BKN035=



000
FTUS41 KPBZ 150600 AAA
TAFPIT
TAF AMD
KPIT 150658Z 1507/1612 18006KT P6SM -SHRA OVC050
     FM150800 30012G22KT 4SM -SHRA OVC008
     FM151200 31012G22KT 6SM -SHSN OVC015
     FM152000 32010G20KT P6SM VCSH BKN025=



000
FTUS41 KPBZ 150600 AAA
TAFLBE
TAF AMD
KLBE 150658Z 1507/1606 17008G16KT P6SM -SHRA OVC050
     FM151000 30012G22KT 4SM -SHRA OVC008
     FM151600 31012G22KT 6SM -SHSN OVC015
     FM152200 32010G20KT P6SM VCSH BKN025
      AMD NOT SKED=



000
FTUS41 KPBZ 150500
TAFMGW
TAF
KMGW 150520Z 1506/1606 18008KT P6SM -SHRA OVC050
     FM150800 25012KT 5SM -RA OVC015
     FM151000 30012G22KT 4SM -SHRA OVC008
     FM151600 31012G22KT 6SM -SHSN OVC015
     FM152200 32010G20KT P6SM VCSH BKN025=



000
FTUS41 KPBZ 150500
TAFDUJ
TAF
KDUJ 150520Z 1506/1606 17008KT P6SM -SHRA OVC050
     FM150700 25012KT 5SM -RA OVC015
     FM150900 30012G22KT 2SM -SHRA OVC008
     FM151400 31012G22KT 3SM -SHSN OVC010
     FM160200 32008KT P6SM VCSH BKN020=



000
FTUS41 KPBZ 150500
TAFHLG
TAF
KHLG 150520Z 1506/1606 17008KT P6SM -SHRA OVC050
     FM150800 30012G22KT 4SM -SHRA OVC008
     FM151400 31012G22KT 6SM -SHSN OVC015
     FM152000 32010G20KT P6SM VCSH BKN025=



000
FTUS41 KPBZ 150500
TAFBVI
TAF
KBVI 150520Z 1506/1606 17006KT P6SM -SHRA OVC050
     FM150800 30012G22KT 4SM -SHRA OVC008
     FM151400 31012G22KT 6SM -SHSN OVC015
     FM152000 32010G20KT P6SM VCSH BKN025
      AMD NOT SKED=



000
FTUS41 KPBZ 150500
TAFPIT
TAF
KPIT 150520Z 1506/1612 18006KT P6SM -SHRA OVC050
     FM150700 30012G22KT 4SM -SHRA OVC008
     FM151200 31012G22KT 6SM -SHSN OVC015
     FM152000 32010G20KT P6SM VCSH BKN025=



000
FTUS41 KPBZ 150500
TAFLBE
TAF
KLBE 150520Z 1506/1606 15008G16KT P6SM -SHRA OVC050
     FM150800 25012KT 5SM -RA OVC015
     FM151000 30012G22KT 4SM -SHRA OVC008
     FM151600 31012G22KT 6SM -SHSN OVC015
     FM152200 32010G20KT P6SM VCSH BKN025
      AMD NOT SKED=



000
FTUS41 KPBZ 150500
TAFAGC
TAF
KAGC 150520Z 1506/1606 18008KT P6SM -SHRA OVC050
     FM150830 30012G22KT 4SM -SHRA OVC008
     FM151400 31012G22KT 6SM -SHSN OVC015
     FM152000 32010G20KT P6SM VCSH BKN025=



000
FTUS41 KPBZ 150500
TAFZZV
TAF
KZZV 150520Z 1506/1606 30012G22KT P6SM -SHRA OVC008
      TEMPO 1506/1508 3SM -SHRA
     FM151100 31012G22KT 6SM -SHSN OVC015
     FM151600 32010G20KT P6SM BKN025
     FM152200 32008KT P6SM BKN035=



000
FTUS41 KPBZ 150400 AAB
TAFZZV
TAF AMD
KZZV 150446Z 1505/1524 30012KT P6SM -SHRA OVC008
     FM151100 31015G25KT 3SM -SHSN OVC015
     FM151600 32015G25KT P6SM BKN035=



000
FTUS41 KPBZ 150200 AAA
TAFZZV
TAF AMD
KZZV 150235Z 1503/1524 15006KT P6SM OVC050
     FM150500 25012KT 5SM -RA OVC015
     FM150700 30012KT 3SM -SHRA OVC008
     FM151100 31015G25KT 3SM -SHSN OVC015
     FM151600 32015G25KT P6SM BKN035=



000
FTUS41 KPBZ 150200 AAA
TAFMGW
TAF AMD
KMGW 150234Z 1503/1524 18005KT P6SM BKN080
     FM150900 25012KT 5SM -RA BR OVC015
     FM151200 30012KT 3SM -SHRA OVC007
     FM151700 30012G25KT 4SM -SHSN OVC015
     FM152100 32015G25KT P6SM BKN035=



000
FTUS41 KPBZ 150200 AAB
TAFHLG
TAF AMD
KHLG 150233Z 1503/1524 18010KT P6SM -SHRA OVC040
     FM150500 25012KT 5SM -RA OVC015
     FM150700 30012KT 3SM -SHRA OVC008
     FM151400 31015G25KT 3SM -SHSN OVC015
     FM151800 32015G25KT P6SM BKN035=



000
FTUS41 KPBZ 150200 AAB
TAFPIT
TAF AMD
KPIT 150232Z 1503/1606 15005KT P6SM OVC050
     FM150700 25012KT 5SM -RA OVC015
     FM151000 30012KT 3SM -SHRA OVC008
     FM151600 31015G25KT 3SM -SHSN OVC015
     FM152000 32015G25KT P6SM BKN035=



000
FTUS41 KPBZ 150200 AAB
TAFAGC
TAF AMD
KAGC 150232Z 1503/1524 15005KT P6SM OVC050
     FM150700 25012KT 5SM -RA OVC015
     FM151000 30012KT 3SM -SHRA OVC008
     FM151600 31015G25KT 3SM -SHSN OVC015
     FM152000 32015G25KT P6SM BKN035=



000
FTUS41 KPBZ 150100 AAA
TAFDUJ
TAF AMD
KDUJ 150108Z 1501/1524 19010KT P6SM -SHRA BKN040
     FM150500 VRB05KT 3SM -RA OVC012
     FM151000 29012KT 3SM -SHRA OVC010
     FM151400 33014G24KT 2SM -SHSN OVC007
     FM152000 32014G24KT P6SM -SHSN BKN015=



000
FTUS41 KPBZ 150000 AAA
TAFHLG
TAF AMD
KHLG 150022Z 1500/1524 18010KT P6SM -SHRA OVC040
     FM150300 25012KT 5SM -RA OVC015
     FM150700 30012KT 3SM -SHRA OVC008
     FM151400 31015G25KT 3SM -SHSN OVC015
     FM151800 32015G25KT P6SM BKN035=



000
FTUS41 KPBZ 150000 AAA
TAFBVI
TAF AMD
KBVI 150021Z 1500/1524 22010KT P6SM -SHRA BKN035
     FM150400 25012KT 5SM -RA OVC015
     FM150800 30012KT 3SM -SHRA OVC008
     FM151500 31015G25KT 3SM -SHSN OVC015
     FM151900 32015G25KT P6SM BKN035
      AMD NOT SKED 1501/1511=



000
FTUS41 KPBZ 150000 AAA
TAFAGC
TAF AMD
KAGC 150021Z 1500/1524 20008KT P6SM -SHRA OVC050
     FM150400 25012KT 5SM -RA OVC015
     FM150900 30012KT 3SM -SHRA OVC008
     FM151600 31015G25KT 3SM -SHSN OVC015
     FM152000 32015G25KT P6SM BKN035=



000
FTUS41 KPBZ 150000 AAA
TAFPIT
TAF AMD
KPIT 150020Z 1500/1606 21008KT P6SM -SHRA OVC040
     FM150400 25012KT 5SM -RA OVC015
     FM150900 30012KT 3SM -SHRA OVC008
     FM151600 31015G25KT 3SM -SHSN OVC015
     FM152000 32015G25KT P6SM BKN035=



000
FTUS41 KPBZ 142300
TAFZZV
TAF
KZZV 142325Z 1500/1524 21008KT P6SM -SHRA OVC040
     FM150200 25012KT 5SM -RA OVC015
     FM150600 30012KT 3SM -SHRA OVC008
     FM151100 31015G25KT 3SM -SHSN OVC015
     FM151600 32015G25KT P6SM BKN035=



000
FTUS41 KPBZ 142300
TAFDUJ
TAF
KDUJ 142325Z 1500/1524 22008G16KT P6SM -SHRA BKN040
     FM150500 VRB05KT 3SM -RA OVC012
     FM151000 29012KT 3SM -SHRA OVC010
     FM151400 33014G24KT 2SM -SHSN OVC007
     FM152000 32014G24KT P6SM -SHSN BKN015=



000
FTUS41 KPBZ 142300
TAFBVI
TAF
KBVI 142325Z 1500/1524 22010KT P6SM -SHRA BKN025
     FM150400 25012KT 5SM -RA OVC015
     FM150800 30012KT 3SM -SHRA OVC008
     FM151500 31015G25KT 3SM -SHSN OVC015
     FM151900 32015G25KT P6SM BKN035
      AMD NOT SKED 1501/1511=



000
FTUS41 KPBZ 142300
TAFMGW
TAF
KMGW 142325Z 1500/1524 20008KT P6SM -SHRA BKN040
     FM150500 25012KT 5SM -RA BR OVC015
     FM150900 30012KT 3SM -SHRA OVC007
     FM151700 30012G25KT 4SM -SHSN OVC015
     FM152100 32015G25KT P6SM BKN035=



000
FTUS41 KPBZ 142300
TAFLBE
TAF
KLBE 142325Z 1500/1524 23010KT P6SM -SHRA BKN040
     FM150300 25012KT 5SM -RA BR OVC015
     FM151000 30012KT 3SM -SHRA OVC007
     FM151700 30012G25KT 4SM -SHSN OVC015
     FM152100 32015G25KT P6SM BKN035
      AMD NOT SKED 1502/1510=



000
FTUS41 KPBZ 142300
TAFHLG
TAF
KHLG 142325Z 1500/1524 21010G20KT P6SM -SHRA OVC040
     FM150300 25012KT 5SM -RA OVC015
     FM150700 30012KT 3SM -SHRA OVC008
     FM151400 31015G25KT 3SM -SHSN OVC015
     FM151800 32015G25KT P6SM BKN035=



000
FTUS41 KPBZ 142300
TAFAGC
TAF
KAGC 142325Z 1500/1524 20010G20KT P6SM -SHRA OVC050
     FM150400 25012KT 5SM -RA OVC015
     FM150900 30012KT 3SM -SHRA OVC008
     FM151600 31015G25KT 3SM -SHSN OVC015
     FM152000 32015G25KT P6SM BKN035=



000
FTUS41 KPBZ 142300
TAFPIT
TAF
KPIT 142325Z 1500/1606 21010G20KT P6SM -SHRA OVC040
     FM150400 25012KT 5SM -RA OVC015
     FM150900 30012KT 3SM -SHRA OVC008
     FM151600 31015G25KT 3SM -SHSN OVC015
     FM152000 32015G25KT P6SM BKN035=



000
FTUS41 KPBZ 142300 AAA
TAFZZV
TAF AMD
KZZV 142302Z 1423/1518 20007KT P6SM OVC090
     FM150100 27010KT 3SM -RA OVC012
     FM150600 33012G20KT 3SM -SHRA OVC010
     FM151200 33015G25KT 3SM -SHSN OVC008=



000
FTUS41 KPBZ 142200 AAB
TAFHLG
TAF AMD
KHLG 142259Z 1423/1518 19012KT P6SM -SHRA BKN035
     FM150700 30012KT 3SM -SHRA OVC010
     FM151400 32015G25KT 4SM -SHSN OVC010=



000
FTUS41 KPBZ 142200 AAC
TAFPIT
TAF AMD
KPIT 142258Z 1423/1524 20013G18KT P6SM BKN060
     FM150300 25012KT 3SM -RA OVC012
     FM150800 30012KT 3SM -SHRA OVC010
     FM151500 33015G25KT 3SM -SHSN OVC010=



000
FTUS41 KPBZ 142200 AAB
TAFAGC
TAF AMD
KAGC 142258Z 1423/1518 22013G21KT P6SM BKN060
     FM150300 25012KT 3SM -RA OVC012
     FM150900 30012KT 3SM -SHRA OVC010
     FM151600 33015G25KT 3SM -SHSN OVC010=



000
FTUS41 KPBZ 142200 AAB
TAFLBE
TAF AMD
KLBE 142258Z 1423/1518 21012KT 6SM -RA OVC050
     FM150300 25012KT 3SM -RA OVC012
     FM150900 30012KT 3SM -SHRA OVC007=



000
FTUS41 KPBZ 142000 AAB
TAFPIT
TAF AMD
KPIT 142056Z 1421/1524 22010G20KT P6SM -SHRA BKN025
     FM150300 25012KT 3SM -RA OVC012
     FM150800 30012KT 3SM -SHRA OVC010
     FM151500 33015G25KT 3SM -SHSN OVC010=



000
FTUS41 KPBZ 142000 AAA
TAFMGW
TAF AMD
KMGW 142034Z 1421/1518 22010G20KT P6SM -SHRA BKN045
     FM150300 VRB05KT 3SM -RA OVC012
     FM151100 29012KT 3SM -SHRA OVC010=



000
FTUS41 KPBZ 141900 AAA
TAFLBE
TAF AMD
KLBE 141959Z 1420/1518 24015G25KT P6SM -SHRA BKN025
     FM150300 25012KT 3SM -RA OVC012
     FM150900 30012KT 3SM -SHRA OVC007=



000
FTUS41 KPBZ 141900 AAA
TAFAGC
TAF AMD
KAGC 141958Z 1420/1518 22012G25KT 4SM -SHRA OVC025
     FM142100 22012G22KT P6SM -SHRA BKN025
     FM150300 25012KT 3SM -RA OVC012
     FM150900 30012KT 3SM -SHRA OVC010
     FM151600 33015G25KT 3SM -SHSN OVC010=



000
FTUS41 KPBZ 141900 AAA
TAFBVI
TAF AMD
KBVI 141958Z 1420/1518 22012G22KT P6SM -SHRA BKN025
     FM150300 25012KT 3SM -RA OVC012
     FM150900 30012KT 3SM -SHRA OVC010
     FM151400 33015G25KT 3SM -SHSN OVC010=



000
FTUS41 KPBZ 141900 AAA
TAFPIT
TAF AMD
KPIT 141957Z 1420/1524 21015G27KT 4SM -SHRA OVC025
     FM142100 22012G22KT P6SM -SHRA BKN025
     FM150300 25012KT 3SM -RA OVC012
     FM150800 30012KT 3SM -SHRA OVC010
     FM151500 33015G25KT 3SM -SHSN OVC010=



000
FTUS41 KPBZ 141900 AAA
TAFHLG
TAF AMD
KHLG 141955Z 1420/1518 21015G27KT 4SM -SHRA OVC025
     FM142100 24012G25KT P6SM -SHRA BKN025
     FM150700 30012KT 3SM -SHRA OVC010
     FM151400 32015G25KT 4SM -SHSN OVC010=



000
FTUS41 KPBZ 141900 AAA
TAFDUJ
TAF AMD
KDUJ 141952Z 1420/1518 24015G30KT 2SM SHRA BKN040
     FM142100 21016G34KT P6SM -SHRA BKN035
     FM150400 VRB05KT 3SM -RA OVC012
     FM151100 29012KT 3SM -SHRA OVC010
     FM151600 33014G24KT 3SM -SHSN OVC007=



000
FTUS41 KPBZ 141700 CCA
TAFLBE
TAF COR
KLBE 141753Z 1418/1518 21015G30KT P6SM -SHRA BKN035 OVC140
     FM142300 21015G27KT 4SM -SHRA OVC025
     FM150300 25012KT 3SM -RA OVC012
     FM150900 30012KT 3SM -SHRA OVC007=



000
FTUS41 KPBZ 141700 CCA
TAFBVI
TAF COR
KBVI 141753Z 1418/1518 21015G30KT P6SM -SHRA BKN035 OVC140
     FM142100 21015G27KT 4SM -SHRA OVC025
     FM150300 25012KT 3SM -RA OVC012
     FM150900 30012KT 3SM -SHRA OVC010
     FM151400 33015G25KT 3SM -SHSN OVC010=



000
FTUS41 KPBZ 141700 CCA
TAFHLG
TAF COR
KHLG 141753Z 1418/1518 21016G34KT P6SM -SHRA OVC045
     FM142100 21015G27KT 4SM -SHRA OVC025
     FM150300 VRB05KT 3SM -RA OVC012
     FM150900 31012KT 3SM -SHRA OVC010
     FM151500 32015G25KT 4SM -SHSN OVC010=



000
FTUS41 KPBZ 141700 CCB
TAFZZV
TAF COR
KZZV 141752Z 1418/1518 22016G28KT 4SM -SHRA BKN025 OVC040
     FM150100 27010KT 3SM -RA OVC012
     FM150600 33012G20KT 3SM -SHRA OVC010
     FM151200 33015G25KT 3SM -SHSN OVC008=



000
FTUS41 KPBZ 141700 CCA
TAFPIT
TAF COR
KPIT 141752Z 1418/1524 21015G30KT P6SM -SHRA BKN035 OVC140
     FM142100 21015G27KT 4SM -SHRA OVC025
     FM150300 25012KT 3SM -RA OVC012
     FM150900 30012KT 3SM -SHRA OVC010
     FM151600 33015G25KT 3SM -SHSN OVC010=



000
FTUS41 KPBZ 141700 CCA
TAFAGC
TAF COR
KAGC 141752Z 1418/1518 21015G30KT P6SM -SHRA BKN035 OVC140
     FM142100 21015G27KT 4SM -SHRA OVC025
     FM150300 25012KT 3SM -RA OVC012
     FM150900 30012KT 3SM -SHRA OVC010
     FM151600 33015G25KT 3SM -SHSN OVC010=



000
FTUS41 KPBZ 141700 CCA
TAFZZV
TAF COR
KZZV 141726Z 1418/1518 22016G28KT P6SM -SHRA OVC040
     FM150100 27010KT 3SM -RA OVC012
     FM150600 33012G20KT 3SM -SHRA OVC010
     FM151200 33015G25KT 3SM -SHSN OVC008=



000
FTUS41 KPBZ 141700
TAFAGC
TAF
KAGC 141720Z 1418/1518 21015G30KT P6SM -SHRA BKN035 OVC140
     FM150300 25012KT 3SM -RA OVC012
     FM150900 30012KT 3SM -SHRA OVC010
     FM151600 33015G25KT 3SM -SHSN OVC010=



000
FTUS41 KPBZ 141700
TAFDUJ
TAF
KDUJ 141720Z 1418/1518 21015G30KT P6SM VCSH BKN080
     FM142100 21016G34KT 4SM -SHRA BKN035
     FM150400 VRB05KT 3SM -RA OVC012
     FM151100 29012KT 3SM -SHRA OVC010
     FM151600 33014G24KT 3SM -SHSN OVC007=



000
FTUS41 KPBZ 141700
TAFZZV
TAF
KZZV 141720Z 1418/1518 22016G30KT P6SM -SHRA OVC040
     FM150100 27010KT 3SM -RA OVC012
     FM150600 33012G20KT 3SM -SHRA OVC010
     FM151200 33015G25KT 3SM -SHSN OVC008=



000
FTUS41 KPBZ 141700
TAFLBE
TAF
KLBE 141720Z 1418/1518 21015G30KT P6SM -SHRA BKN035 OVC140
     FM150300 25012KT 3SM -RA OVC012
     FM150900 30012KT 3SM -SHRA OVC007=



000
FTUS41 KPBZ 141700
TAFPIT
TAF
KPIT 141720Z 1418/1524 21015G30KT P6SM -SHRA BKN035 OVC140
     FM150300 25012KT 3SM -RA OVC012
     FM150900 30012KT 3SM -SHRA OVC010
     FM151600 33015G25KT 3SM -SHSN OVC010=



000
FTUS41 KPBZ 141700
TAFBVI
TAF
KBVI 141720Z 1418/1518 21015G30KT P6SM -SHRA BKN035 OVC140
     FM150300 25012KT 3SM -RA OVC012
     FM150900 30012KT 3SM -SHRA OVC010
     FM151400 33015G25KT 3SM -SHSN OVC010=



000
FTUS41 KPBZ 141700
TAFMGW
TAF
KMGW 141720Z 1418/1518 21013G26KT P6SM VCSH BKN080
     FM142100 21014G32KT P6SM -SHRA BKN045
     FM150300 VRB05KT 3SM -RA OVC012
     FM151100 29012KT 3SM -SHRA OVC010=



000
FTUS41 KPBZ 141700
TAFHLG
TAF
KHLG 141720Z 1418/1518 21016G34KT P6SM -SHRA OVC045
     FM150300 VRB05KT 3SM -RA OVC012
     FM150900 31012KT 3SM -SHRA OVC010
     FM151500 32015G25KT 4SM -SHSN OVC010=



000
FTUS41 KPBZ 141400 AAB
TAFPIT
TAF AMD
KPIT 141455Z 1415/1518 21015G28KT P6SM VCSH SCT060 OVC140
     FM141900 21016G34KT 4SM -SHRA BKN035
     FM150300 VRB05KT 3SM -RA OVC012
     FM150900 29012KT 3SM -SHRA OVC010=



000
FTUS41 KPBZ 141400 AAA
TAFDUJ
TAF AMD
KDUJ 141420Z 1414/1512 21016G24KT P6SM BKN200
     FM141800 21015G30KT P6SM VCSH BKN080
     FM142100 21016G34KT 4SM -SHRA BKN035
     FM150300 VRB05KT 3SM -RA OVC012
     FM151100 29012KT 3SM -SHRA OVC010=



000
FTUS41 KPBZ 141300 AAA
TAFLBE
TAF AMD
KLBE 141356Z 1414/1512 23010G20KT P6SM BKN150
     FM141800 21014G28KT P6SM VCSH BKN080
     FM142100 21016G34KT 4SM -SHRA BKN035
     FM150300 VRB05KT 3SM -RA OVC012
     FM151100 29012KT 3SM -SHRA OVC010=



000
FTUS41 KPBZ 141300 AAA
TAFAGC
TAF AMD
KAGC 141355Z 1414/1512 18013G21KT P6SM BKN150
     FM141600 21014G28KT P6SM VCSH BKN080
     FM141900 21016G34KT 4SM -SHRA BKN035
     FM150300 VRB05KT 3SM -RA OVC012
     FM150900 29012KT 3SM -SHRA OVC010=



000
FTUS41 KPBZ 141300 AAA
TAFPIT
TAF AMD
KPIT 141355Z 1414/1518 18011G23KT P6SM FEW045 SCT100 OVC150
     FM141500 20014G28KT P6SM VCSH BKN080
     FM141900 21016G34KT 4SM -SHRA BKN035
     FM150300 VRB05KT 3SM -RA OVC012
     FM150900 29012KT 3SM -SHRA OVC010=



000
FTUS41 KPBZ 141300 AAA
TAFBVI
TAF AMD
KBVI 141355Z 1414/1512 18015G25KT P6SM BKN200
     FM141500 21014G28KT P6SM VCSH BKN080
     FM141900 21016G34KT 4SM -SHRA BKN035
     FM150300 VRB05KT 3SM -RA OVC012
     FM150900 29012KT 3SM -SHRA OVC010=



000
FTUS41 KPBZ 141100
TAFHLG
TAF
KHLG 141120Z 1412/1512 19012G22KT P6SM BKN200
     FM141500 21014G28KT P6SM VCSH BKN080
     FM141900 21016G34KT 4SM -SHRA BKN035
     FM150300 VRB05KT 3SM -RA OVC012
     FM150900 29012KT 3SM -SHRA OVC010=



000
FTUS41 KPBZ 141100
TAFLBE
TAF
KLBE 141120Z 1412/1512 19008KT P6SM BKN200 WS015/21040KT
     FM141800 21014G28KT P6SM VCSH BKN080
     FM142100 21016G34KT 4SM -SHRA BKN035
     FM150300 VRB05KT 3SM -RA OVC012
     FM151100 29012KT 3SM -SHRA OVC010=



000
FTUS41 KPBZ 141100
TAFBVI
TAF
KBVI 141120Z 1412/1512 18008KT P6SM BKN200 WS015/21040KT
     FM141500 21014G28KT P6SM VCSH BKN080
     FM141900 21016G34KT 4SM -SHRA BKN035
     FM150300 VRB05KT 3SM -RA OVC012
     FM150900 29012KT 3SM -SHRA OVC010=



000
FTUS41 KPBZ 141100
TAFZZV
TAF
KZZV 141120Z 1412/1512 19010KT P6SM BKN200 WS015/21040KT
     FM141300 21014G28KT P6SM VCSH BKN080
     FM141600 21016G34KT 4SM -SHRA BKN035
     FM150000 VRB05KT 3SM -RA OVC012
     FM150600 29012KT 3SM -SHRA OVC010=



000
FTUS41 KPBZ 141100
TAFAGC
TAF
KAGC 141120Z 1412/1512 18008KT P6SM BKN150 WS015/21040KT
     FM141600 21014G28KT P6SM VCSH BKN080
     FM141900 21016G34KT 4SM -SHRA BKN035
     FM150300 VRB05KT 3SM -RA OVC012
     FM150900 29012KT 3SM -SHRA OVC010=



000
FTUS41 KPBZ 141100
TAFPIT
TAF
KPIT 141120Z 1412/1518 19008KT P6SM BKN150 WS015/21040KT
     FM141500 21014G28KT P6SM VCSH BKN080
     FM141900 21016G34KT 4SM -SHRA BKN035
     FM150300 VRB05KT 3SM -RA OVC012
     FM150900 29012KT 3SM -SHRA OVC010=



000
FTUS41 KPBZ 141100
TAFMGW
TAF
KMGW 141120Z 1412/1512 18008KT P6SM BKN200 WS015/21040KT
     FM141700 21013G26KT P6SM VCSH BKN080
     FM142100 21014G32KT 4SM -SHRA BKN035
     FM150300 VRB05KT 3SM -RA OVC012
     FM151100 29012KT 3SM -SHRA OVC010=



000
FTUS41 KPBZ 141100
TAFDUJ
TAF
KDUJ 141120Z 1412/1512 16008KT P6SM BKN200 WS015/21040KT
     FM141800 21015G30KT P6SM VCSH BKN080
     FM142100 21016G34KT 4SM -SHRA BKN035
     FM150300 VRB05KT 3SM -RA OVC012
     FM151100 29012KT 3SM -SHRA OVC010=



000
FTUS41 KPBZ 141000 AAA
TAFHLG
TAF AMD
KHLG 141009Z 1410/1506 18012G22KT P6SM BKN200
     FM141500 21014G28KT P6SM VCSH BKN080
     FM141900 21016G34KT 4SM -SHRA BKN035
     FM150300 VRB05KT 3SM -RA OVC012=



000
FTUS41 KPBZ 140800 AAA
TAFPIT
TAF AMD
KPIT 140855Z 1409/1512 19008KT P6SM BKN150 WS015/21040KT
     FM141500 21014G28KT P6SM VCSH BKN080
     FM141900 21016G34KT 4SM -SHRA BKN035
     FM150300 VRB05KT 3SM -RA OVC012=



000
FTUS41 KPBZ 140500
TAFDUJ
TAF
KDUJ 140525Z 1406/1506 16008KT P6SM BKN200 WS015/21040KT
     FM141800 21015G30KT P6SM VCSH BKN080
     FM142100 21016G34KT 4SM -SHRA BKN035
     FM150300 VRB05KT 3SM -RA OVC012=



000
FTUS41 KPBZ 140500
TAFLBE
TAF
KLBE 140525Z 1406/1506 18008KT P6SM BKN200 WS015/21040KT
     FM141800 21014G28KT P6SM VCSH BKN080
     FM142100 21016G34KT 4SM -SHRA BKN035
     FM150300 VRB05KT 3SM -RA OVC012
      AMD NOT SKED=



000
FTUS41 KPBZ 140500
TAFBVI
TAF
KBVI 140525Z 1406/1506 18008KT P6SM BKN200 WS015/21040KT
     FM141500 21014G28KT P6SM VCSH BKN080
     FM141900 21016G34KT 4SM -SHRA BKN035
     FM150300 VRB05KT 3SM -RA OVC012
      AMD NOT SKED=



000
FTUS41 KPBZ 140500
TAFPIT
TAF
KPIT 140525Z 1406/1512 18008KT P6SM BKN150 WS015/21040KT
     FM141500 21014G28KT P6SM VCSH BKN080
     FM141900 21016G34KT 4SM -SHRA BKN035
     FM150300 VRB05KT 3SM -RA OVC012=



000
FTUS41 KPBZ 140500
TAFHLG
TAF
KHLG 140525Z 1406/1506 18010KT P6SM BKN200 WS015/21040KT
     FM141500 21014G28KT P6SM VCSH BKN080
     FM141900 21016G34KT 4SM -SHRA BKN035
     FM150300 VRB05KT 3SM -RA OVC012=



000
FTUS41 KPBZ 140500
TAFMGW
TAF
KMGW 140525Z 1406/1506 18008KT P6SM BKN200 WS015/21040KT
     FM141700 21013G26KT P6SM VCSH BKN080
     FM142100 21014G32KT 4SM -SHRA BKN035
     FM150300 VRB05KT 3SM -RA OVC012=



000
FTUS41 KPBZ 140500
TAFAGC
TAF
KAGC 140525Z 1406/1506 18008KT P6SM BKN150 WS015/21040KT
     FM141600 21014G28KT P6SM VCSH BKN080
     FM141900 21016G34KT 4SM -SHRA BKN035
     FM150300 VRB05KT 3SM -RA OVC012=



000
FTUS41 KPBZ 140500
TAFZZV
TAF
KZZV 140525Z 1406/1506 19008KT P6SM BKN200 WS015/21040KT
     FM141300 21014G28KT P6SM VCSH BKN080
     FM141600 21016G34KT 4SM -SHRA BKN035
     FM150000 VRB05KT 3SM -RA OVC012=



000
FTUS41 KPBZ 140200 AAA
TAFPIT
TAF AMD
KPIT 140232Z 1403/1506 18005KT P6SM BKN250
     FM140600 18008KT P6SM BKN200 WS015/21040KT
     FM141400 21015G25KT P6SM VCSH BKN080
     FM142300 21012KT P6SM -SHRA OVC050=



000
FTUS41 KPBZ 132300
TAFAGC
TAF
KAGC 132320Z 1400/1424 20010KT P6SM BKN250
     FM140600 18008KT P6SM BKN200 WS015/21040KT
     FM141400 21015G25KT P6SM VCSH BKN080
     FM142300 21012KT P6SM -SHRA OVC050=



000
FTUS41 KPBZ 132300
TAFLBE
TAF
KLBE 132320Z 1400/1424 20012KT P6SM BKN250
     FM140500 18010KT P6SM BKN200 WS015/21045KT
     FM141400 21015G25KT P6SM VCSH BKN120
      AMD NOT SKED 1402/1410=



000
FTUS41 KPBZ 132300
TAFZZV
TAF
KZZV 132320Z 1400/1424 20010KT P6SM BKN250
     FM140400 18008KT P6SM BKN200 WS015/21040KT
     FM141300 21015G25KT P6SM VCSH BKN080
     FM142000 21012G22KT P6SM -SHRA OVC050=



000
FTUS41 KPBZ 132300
TAFBVI
TAF
KBVI 132320Z 1400/1424 20010KT P6SM BKN250
     FM140600 18008KT P6SM BKN200 WS015/21040KT
     FM141400 21015G25KT P6SM VCSH BKN080
     FM142300 21012KT P6SM -SHRA OVC050
      AMD NOT SKED 1401/1411=



000
FTUS41 KPBZ 132300
TAFPIT
TAF
KPIT 132320Z 1400/1506 20010KT P6SM BKN250
     FM140600 18008KT P6SM BKN200 WS015/21040KT
     FM141400 21015G25KT P6SM VCSH BKN080
     FM142300 21012KT P6SM -SHRA OVC050=



000
FTUS41 KPBZ 132300
TAFMGW
TAF
KMGW 132320Z 1400/1424 20010KT P6SM BKN250
     FM140600 18008KT P6SM BKN200 WS015/21040KT
     FM141400 21015G25KT P6SM VCSH BKN120
     FM142300 21012KT P6SM -SHRA OVC050=



000
FTUS41 KPBZ 132300
TAFHLG
TAF
KHLG 132320Z 1400/1424 20010KT P6SM BKN250
     FM140600 18008KT P6SM BKN200 WS015/21040KT
     FM141400 21015G25KT P6SM VCSH BKN080
     FM142300 21012KT P6SM -SHRA OVC050=



000
FTUS41 KPBZ 132300
TAFDUJ
TAF
KDUJ 132320Z 1400/1424 20010KT P6SM BKN250
     FM140600 18010KT P6SM BKN200 WS015/21040KT
     FM141400 21015G25KT P6SM VCSH BKN080=



000
FTUS41 KPBZ 132000 AAA
TAFPIT
TAF AMD
KPIT 132055Z 1321/1424 22015G25KT P6SM BKN250
     FM140000 20010KT P6SM BKN250
     FM141500 21015G25KT P6SM VCSH BKN120=



000
FTUS41 KPBZ 131700
TAFAGC
TAF
KAGC 131720Z 1318/1418 22014G25KT P6SM FEW070 BKN150 BKN220
     FM140000 20010KT P6SM SCT050 BKN250
     FM141500 21015G28KT P6SM SCT050 OVC120=



000
FTUS41 KPBZ 131700
TAFDUJ
TAF
KDUJ 131720Z 1318/1418 23015G25KT P6SM SCT040 SCT200
     FM132300 19011KT P6SM SCT050 BKN250
     FM141500 21017G30KT P6SM BKN050 OVC100=



000
FTUS41 KPBZ 131700
TAFHLG
TAF
KHLG 131720Z 1318/1418 22014G25KT P6SM FEW070 BKN150 BKN220
     FM140000 20010KT P6SM SCT050 BKN250
     FM141500 21015G28KT P6SM SCT050 OVC120
     FM141700 21015G30KT P6SM -SHRA BKN050 OVC120=



000
FTUS41 KPBZ 131700
TAFBVI
TAF
KBVI 131720Z 1318/1418 22014G25KT P6SM FEW070 BKN150 BKN220
     FM140000 20010KT P6SM SCT050 BKN250
     FM141500 21015G28KT P6SM SCT050 OVC120
     FM141700 21015G30KT P6SM -SHRA BKN050 OVC120=



000
FTUS41 KPBZ 131700
TAFZZV
TAF
KZZV 131720Z 1318/1418 22015G25KT P6SM SCT050 BKN250
     FM140000 19011KT P6SM SCT050 BKN250
     FM141500 21017G30KT P6SM -SHRA BKN050 OVC100=



000
FTUS41 KPBZ 131700
TAFMGW
TAF
KMGW 131720Z 1318/1418 20014G25KT P6SM BKN200
     FM132300 19010KT P6SM SCT050 BKN250
     FM141500 20015G28KT P6SM SCT050 OVC120=



000
FTUS41 KPBZ 131700
TAFPIT
TAF
KPIT 131720Z 1318/1424 22014G25KT P6SM FEW070 BKN150 BKN220
     FM140000 20010KT P6SM SCT050 BKN250
     FM141500 21015G28KT P6SM SCT050 OVC120
     FM141800 21015G30KT P6SM -SHRA BKN050 OVC120=



000
FTUS41 KPBZ 131700
TAFLBE
TAF
KLBE 131720Z 1318/1418 23014G25KT P6SM FEW070 BKN150 BKN220
     FM140000 20010KT P6SM SCT050 BKN250
     FM141500 21015G28KT P6SM SCT050 OVC120=



000
FTUS41 KPBZ 131400 AAB
TAFPIT
TAF AMD
KPIT 131455Z 1315/1418 22014G25KT P6SM FEW070 BKN150 BKN220
     FM132300 18010KT P6SM SCT050 BKN250
     FM141500 18015KT P6SM OVC100=



000
FTUS41 KPBZ 131300 AAA
TAFBVI
TAF AMD
KBVI 131301Z 1313/1412 22012G25KT P6SM SCT070 BKN250
      TEMPO 1313/1314 -SHRA OVC070
     FM132300 18010KT P6SM SCT050 BKN250=



000
FTUS41 KPBZ 131300 AAA
TAFAGC
TAF AMD
KAGC 131300Z 1313/1412 21015G25KT P6SM SCT070 BKN250
      TEMPO 1313/1314 -SHRA OVC070
     FM132300 18010KT P6SM SCT050 BKN250=



000
FTUS41 KPBZ 131300 AAA
TAFPIT
TAF AMD
KPIT 131300Z 1313/1418 21015G25KT P6SM FEW090 BKN120 BKN220
      TEMPO 1313/1314 -SHRA OVC070
     FM132300 18010KT P6SM SCT050 BKN250
     FM141500 18015KT P6SM OVC100=



000
FTUS41 KPBZ 131200 AAA
TAFMGW
TAF AMD
KMGW 131245Z 1313/1412 16009KT P6SM SCT070 BKN250
      TEMPO 1313/1315 -SHRA OVC070
     FM131500 21015G25KT P6SM SCT050 BKN250
     FM132300 18007KT P6SM SCT050 BKN250=



000
FTUS41 KPBZ 131100 CCA
TAFLBE
TAF COR
KLBE 131135Z 1312/1412 18011KT P6SM SCT070 BKN250
      TEMPO 1312/1314 -SHRA OVC070
     FM131400 21015G25KT P6SM SCT050 BKN250
     FM140000 22011KT P6SM SCT050 BKN250=



000
FTUS41 KPBZ 131100 CCB
TAFAGC
TAF COR
KAGC 131134Z 1312/1412 18008KT P6SM SCT070 BKN250
      TEMPO 1312/1314 -SHRA OVC070
     FM131500 21015G25KT P6SM SCT070 BKN250
     FM132300 18010KT P6SM SCT050 BKN250=



000
FTUS41 KPBZ 131100 CCB
TAFBVI
TAF COR
KBVI 131134Z 1312/1412 18008KT P6SM SCT070 BKN250
      TEMPO 1312/1314 -SHRA OVC070
     FM131500 21015G25KT P6SM SCT070 BKN250
     FM132300 18010KT P6SM SCT050 BKN250=



000
FTUS41 KPBZ 131100 CCB
TAFPIT
TAF COR
KPIT 131134Z 1312/1418 18008KT P6SM SCT070 BKN250
      TEMPO 1312/1314 -SHRA OVC070
     FM131500 21015G25KT P6SM SCT070 BKN250
     FM132300 18010KT P6SM SCT050 BKN250
     FM141500 18015KT P6SM OVC100=



000
FTUS41 KPBZ 131100 CCA
TAFBVI
TAF COR
KBVI 131123Z 1312/1412 18008KT P6SM SCT070 BKN250
      TEMPO 1313/1315 -SHRA OVC070
     FM131500 21015G25KT P6SM SCT070 BKN250
     FM132300 18010KT P6SM SCT050 BKN250=



000
FTUS41 KPBZ 131100 CCA
TAFAGC
TAF COR
KAGC 131123Z 1312/1412 18008KT P6SM SCT070 BKN250
      TEMPO 1313/1315 -SHRA OVC070
     FM131500 21015G25KT P6SM SCT070 BKN250
     FM132300 18010KT P6SM SCT050 BKN250=



000
FTUS41 KPBZ 131100 CCA
TAFHLG
TAF COR
KHLG 131122Z 1312/1412 19011KT P6SM SCT070 BKN250
      TEMPO 1312/1314 -SHRA OVC070
     FM131500 21015G25KT P6SM SCT050 BKN250
     FM132300 18012KT P6SM SCT050 BKN250=



000
FTUS41 KPBZ 131100 CCA
TAFPIT
TAF COR
KPIT 131122Z 1312/1418 18008KT P6SM SCT070 BKN250
      TEMPO 1313/1315 -SHRA OVC070
     FM131500 21015G25KT P6SM SCT070 BKN250
     FM132300 18010KT P6SM SCT050 BKN250
     FM141500 18015KT P6SM OVC100=



000
FTUS41 KPBZ 131100
TAFPIT
TAF
KPIT 131120Z 1312/1418 18008KT P6SM SCT070 BKN250
     FM131500 21015G25KT P6SM SCT070 BKN250
     FM132300 18010KT P6SM SCT050 BKN250
     FM141500 18015KT P6SM OVC100=



000
FTUS41 KPBZ 131100
TAFDUJ
TAF
KDUJ 131120Z 1312/1412 17005KT P6SM SCT070 BKN250
     FM131500 21015G25KT P6SM BKN040
     FM132300 19011KT P6SM SCT050 BKN250=



000
FTUS41 KPBZ 131100
TAFBVI
TAF
KBVI 131120Z 1312/1412 18008KT P6SM SCT070 BKN250
     FM131500 21015G25KT P6SM SCT070 BKN250
     FM132300 18010KT P6SM SCT050 BKN250=



000
FTUS41 KPBZ 131100
TAFLBE
TAF
KLBE 131120Z 1312/1412 18011KT P6SM SCT070 BKN250
     FM131400 21015G25KT P6SM SCT050 BKN250
     FM140000 22011KT P6SM SCT050 BKN250=



000
FTUS41 KPBZ 131100
TAFAGC
TAF
KAGC 131120Z 1312/1412 18008KT P6SM SCT070 BKN250
     FM131500 21015G25KT P6SM SCT070 BKN250
     FM132300 18010KT P6SM SCT050 BKN250=



000
FTUS41 KPBZ 131100
TAFMGW
TAF
KMGW 131120Z 1312/1412 16009KT P6SM SCT070 BKN250
     FM131500 21015G25KT P6SM SCT050 BKN250
     FM132300 18007KT P6SM SCT050 BKN250=



000
FTUS41 KPBZ 131100
TAFZZV
TAF
KZZV 131120Z 1312/1412 17007KT P6SM SCT070 BKN250
     FM131500 21015G25KT P6SM SCT050 BKN250
     FM132300 19011KT P6SM SCT050 BKN250=



000
FTUS41 KPBZ 131100
TAFHLG
TAF
KHLG 131120Z 1312/1412 18011KT P6SM SCT070 BKN250
     FM131500 21015G25KT P6SM SCT050 BKN250
     FM132300 18012KT P6SM SCT050 BKN250=



    US Dept of Commerce
    National Oceanic and Atmospheric Administration
    National Weather Service
    1325 East West Highway
    Silver Spring, MD 20910
    Page Author: NWS Internet Services Team
Disclaimer
Information Quality
Credits
Glossary
Privacy Policy
Freedom of Information Act (FOIA)
About Us
Career Opportunities